Time;durP1;ratioP1;P1;durP2;ratioP2;P2;SDS_P1;SDS_P2;PMS_P1;PMS_P2;Temp;Humidity;BMP_temperature;BMP_pressure;BME280_temperature;BME280_humidity;BME280_pressure;Samples;Min_cycle;Max_cycle;Signal;HPM_P1;HPM_P2
2021/07/28 00:00:52;;;;;;;17.27;7.83;;;;;;;25.18;52.94;100530.88;126349;1099;104143;-78
2021/07/28 00:03:23;;;;;;;22.17;7.23;;;;;;;25.18;52.69;100521.91;126336;1099;104181;-78
2021/07/28 00:05:54;;;;;;;20.53;7.97;;;;;;;25.18;53.10;100527.28;125449;1099;104165;-78
2021/07/28 00:08:25;;;;;;;19.27;8.03;;;;;;;25.17;52.97;100522.86;125339;1099;104140;-78
2021/07/28 00:10:57;;;;;;;19.67;7.60;;;;;;;25.16;53.03;100515.71;126304;1099;104159;-78
2021/07/28 00:13:28;;;;;;;15.38;7.80;;;;;;;25.12;53.01;100522.97;125427;1099;104165;-78
2021/07/28 00:15:59;;;;;;;15.60;7.17;;;;;;;25.09;53.13;100520.36;125347;1099;104271;-78
2021/07/28 00:18:41;;;;;;;19.77;7.60;;;;;;;25.09;52.85;100520.36;126270;1099;104182;-78
2021/07/28 00:23:54;;;;;;;18.07;7.60;;;;;;;25.04;52.92;100517.78;126278;1099;104309;-78
2021/07/28 00:26:25;;;;;;;19.87;7.50;;;;;;;25.03;53.10;100515.13;126350;1099;104146;-79
2021/07/28 00:29:01;;;;;;;16.83;6.83;;;;;;;25.03;53.33;100521.38;126299;1099;104251;-78
2021/07/28 00:31:32;;;;;;;14.37;6.97;;;;;;;25.03;53.26;100524.06;125422;1099;104152;-78
2021/07/28 00:34:03;;;;;;;19.03;8.90;;;;;;;25.00;53.28;100521.45;126346;1099;104242;-78
2021/07/28 00:36:33;;;;;;;23.97;9.90;;;;;;;24.93;53.43;100515.34;126303;1099;104367;-78
2021/07/28 00:39:05;;;;;;;26.97;10.77;;;;;;;24.82;53.85;100516.50;126323;1099;105550;-78
2021/07/28 00:41:35;;;;;;;27.30;10.13;;;;;;;24.75;53.98;100511.28;126319;1098;104150;-78
2021/07/28 00:44:06;;;;;;;24.30;10.33;;;;;;;24.68;53.91;100523.09;126382;1099;104239;-78
2021/07/28 00:46:38;;;;;;;23.77;10.80;;;;;;;24.60;54.30;100516.98;126342;1099;104579;-78
2021/07/28 00:49:09;;;;;;;23.07;10.17;;;;;;;24.55;54.20;100509.00;126227;1099;105316;-79
2021/07/28 00:51:41;;;;;;;26.03;10.77;;;;;;;24.52;54.36;100516.24;126332;1099;104204;-78
2021/07/28 00:54:11;;;;;;;25.77;10.57;;;;;;;24.54;54.44;100511.72;126337;1099;104144;-79
2021/07/28 00:56:42;;;;;;;23.53;10.33;;;;;;;24.54;54.45;100503.67;126365;1099;104147;-78
2021/07/28 00:59:16;;;;;;;25.17;9.93;;;;;;;24.53;54.36;100507.30;126255;1099;104146;-78
2021/07/28 01:01:47;;;;;;;24.20;10.10;;;;;;;24.55;54.63;100511.69;126252;1099;104313;-78
2021/07/28 01:04:18;;;;;;;24.97;10.53;;;;;;;24.55;54.68;100503.64;126329;1099;104195;-78
2021/07/28 01:06:52;;;;;;;21.30;10.03;;;;;;;24.57;54.79;100506.32;126318;1099;104140;-78
2021/07/28 01:09:23;;;;;;;23.50;10.27;;;;;;;24.55;54.71;100508.13;126307;1099;104320;-78
2021/07/28 01:11:54;;;;;;;21.87;10.00;;;;;;;24.52;54.89;100500.16;126336;1099;104223;-79
2021/07/28 01:14:25;;;;;;;23.20;9.23;;;;;;;24.52;55.07;100497.47;126295;1099;104306;-78
2021/07/28 01:16:57;;;;;;;21.43;9.13;;;;;;;24.51;55.11;100491.23;126294;1099;104143;-77
2021/07/28 01:19:31;;;;;;;20.03;8.83;;;;;;;24.53;54.71;100491.20;126272;1099;104592;-78
2021/07/28 01:22:04;;;;;;;20.77;8.33;;;;;;;24.52;55.25;100484.06;126332;1099;104257;-77
2021/07/28 01:24:36;;;;;;;25.57;8.60;;;;;;;24.52;55.01;100486.73;126334;1099;104162;-78
2021/07/28 01:27:09;;;;;;;19.07;8.23;;;;;;;24.50;55.05;100486.77;126259;1099;104333;-78
2021/07/28 01:29:40;;;;;;;21.27;8.20;;;;;;;24.48;54.95;100493.98;126324;1099;104159;-79
2021/07/28 01:32:14;;;;;;;19.53;7.93;;;;;;;24.49;54.96;100494.86;125300;1102;104245;-78
2021/07/28 01:34:48;;;;;;;18.07;8.13;;;;;;;24.48;55.13;100485.94;125374;1102;104345;-78
2021/07/28 01:37:20;;;;;;;27.67;9.17;;;;;;;24.49;54.84;100482.31;125340;1102;104219;-78
2021/07/28 01:39:51;;;;;;;26.53;8.80;;;;;;;24.51;55.01;100483.19;125257;1102;104303;-78
2021/07/28 01:42:22;;;;;;;24.43;8.77;;;;;;;24.50;55.01;100489.45;125312;1102;104213;-77
2021/07/28 01:44:52;;;;;;;22.10;8.80;;;;;;;24.47;55.19;100489.52;125259;1102;104144;-78
2021/07/28 01:47:23;;;;;;;21.73;8.73;;;;;;;24.46;55.27;100494.92;125285;1102;104173;-77
2021/07/28 01:49:55;;;;;;;29.23;9.60;;;;;;;24.45;55.47;100487.78;125319;1100;104175;-79
2021/07/28 01:52:25;;;;;;;25.60;8.90;;;;;;;24.43;55.00;100487.81;125294;1102;104326;-79
2021/07/28 01:54:56;;;;;;;21.57;8.37;;;;;;;24.37;55.34;100488.84;125261;1102;104409;-78
2021/07/28 01:57:28;;;;;;;20.47;8.37;;;;;;;24.34;55.65;100483.55;125289;1102;104166;-78
2021/07/28 02:00:00;;;;;;;18.83;8.27;;;;;;;24.34;55.47;100485.33;125338;1102;104153;-78
2021/07/28 02:02:33;;;;;;;18.43;7.23;;;;;;;24.32;55.35;100490.72;125189;1102;104176;-78
2021/07/28 02:05:05;;;;;;;17.30;8.00;;;;;;;24.30;55.70;100489.88;126203;1099;104162;-77
2021/07/28 02:07:36;;;;;;;18.63;7.47;;;;;;;24.32;55.54;100485.36;126341;1098;104162;-77
2021/07/28 02:10:08;;;;;;;16.20;7.37;;;;;;;24.33;55.54;100487.14;126307;1099;104185;-77
2021/07/28 02:12:39;;;;;;;19.90;8.17;;;;;;;24.34;55.42;100493.38;126288;1099;105515;-77
2021/07/28 02:15:13;;;;;;;15.70;7.40;;;;;;;24.31;55.78;100505.06;125402;1099;104275;-77
2021/07/28 02:17:43;;;;;;;18.77;7.33;;;;;;;24.27;55.65;100495.31;126331;1099;104159;-78
2021/07/28 02:20:16;;;;;;;18.23;6.90;;;;;;;24.24;55.78;100498.05;126347;1099;104147;-78
2021/07/28 02:22:51;;;;;;;22.57;7.67;;;;;;;24.26;55.91;100493.53;126294;1099;104159;-77
2021/07/28 02:25:22;;;;;;;16.27;7.13;;;;;;;24.28;55.86;100498.86;125321;1099;104213;-77
2021/07/28 02:27:53;;;;;;;15.25;7.30;;;;;;;24.25;55.88;100504.29;126328;1099;104223;-78
2021/07/28 02:30:23;;;;;;;16.10;7.10;;;;;;;24.25;56.10;100497.16;125366;1099;104338;-77
2021/07/28 02:32:54;;;;;;;14.63;6.87;;;;;;;24.25;55.97;100490.88;126291;1099;104703;-78
2021/07/28 02:35:25;;;;;;;21.90;7.97;;;;;;;24.22;56.17;100491.85;126310;1099;104187;-78
2021/07/28 02:37:56;;;;;;;19.77;8.03;;;;;;;24.22;56.05;100490.05;126330;1099;104140;-77
2021/07/28 02:40:27;;;;;;;20.77;8.17;;;;;;;24.22;56.13;100479.32;126324;1099;104201;-79
2021/07/28 02:42:57;;;;;;;22.13;8.03;;;;;;;24.23;56.19;100481.09;125295;1099;104142;-78
2021/07/28 02:45:28;;;;;;;16.93;7.97;;;;;;;24.23;56.24;100473.05;126317;1099;104137;-79
2021/07/28 02:48:02;;;;;;;16.53;7.60;;;;;;;24.24;56.34;100484.66;126278;1099;104133;-78
2021/07/28 02:50:34;;;;;;;19.43;7.53;;;;;;;24.23;56.21;100480.19;126369;1099;104578;-78
2021/07/28 02:53:04;;;;;;;17.65;7.75;;;;;;;24.23;56.31;100485.55;126312;1099;104150;-78
2021/07/28 02:55:35;;;;;;;19.10;8.00;;;;;;;24.24;56.36;100487.33;126291;1099;104287;-79
2021/07/28 02:58:06;;;;;;;16.17;7.57;;;;;;;24.25;56.42;100486.42;126322;1099;104667;-78
2021/07/28 03:00:36;;;;;;;17.83;7.70;;;;;;;24.26;56.36;100479.26;126322;1099;104185;-78
2021/07/28 03:03:08;;;;;;;22.90;8.03;;;;;;;24.25;56.37;100481.06;126284;1099;104155;-79
2021/07/28 03:05:39;;;;;;;18.87;7.40;;;;;;;24.27;56.55;100487.27;126354;1099;104259;-78
2021/07/28 03:08:10;;;;;;;20.50;7.03;;;;;;;24.30;56.96;100489.88;126326;1099;104204;-78
2021/07/28 03:10:43;;;;;;;20.82;7.67;;;;;;;24.35;56.50;100485.30;126343;1099;104182;-78
2021/07/28 03:13:17;;;;;;;24.20;7.67;;;;;;;24.38;56.56;100485.23;125310;1099;104191;-78
2021/07/28 03:15:46;;;;;;;;;;;;;;;24.37;55.97;100482.58;126385;1099;104942;-78
2021/07/28 03:18:17;;;;;;;16.87;7.03;;;;;;;24.37;56.62;100483.48;126334;1099;104325;-78
2021/07/28 03:20:51;;;;;;;14.90;6.67;;;;;;;24.38;56.34;100474.50;126306;1099;104328;-78
2021/07/28 03:23:21;;;;;;;15.58;6.87;;;;;;;24.40;56.60;100482.52;126309;1099;104171;-80
2021/07/28 03:25:52;;;;;;;16.63;7.23;;;;;;;24.43;56.57;100486.94;125453;1099;104239;-77
2021/07/28 03:28:23;;;;;;;19.83;7.10;;;;;;;24.45;56.58;100479.73;126341;1099;104143;-78
2021/07/28 03:30:55;;;;;;;19.00;7.50;;;;;;;24.47;56.67;100478.80;126344;1099;104361;-79
2021/07/28 03:33:26;;;;;;;18.33;7.63;;;;;;;24.48;56.35;100477.89;126238;1099;104351;-79
2021/07/28 03:35:56;;;;;;;20.03;8.03;;;;;;;24.50;56.62;100485.91;126333;1099;104772;-78
2021/07/28 03:38:27;;;;;;;17.83;7.20;;;;;;;24.48;56.64;100477.89;126296;1099;104223;-78
2021/07/28 03:40:58;;;;;;;20.57;7.40;;;;;;;24.51;56.44;100485.87;126366;1099;104149;-79
2021/07/28 03:43:28;;;;;;;19.13;7.77;;;;;;;24.53;56.76;100486.70;126281;1099;104251;-79
2021/07/28 03:46:01;;;;;;;15.40;7.05;;;;;;;24.56;56.51;100496.50;126280;1099;104140;-78
2021/07/28 03:48:34;;;;;;;18.00;7.20;;;;;;;24.58;56.56;100489.32;125395;1099;104169;-78
2021/07/28 03:51:09;;;;;;;21.13;8.03;;;;;;;24.62;56.53;100491.03;126301;1099;104201;-78
2021/07/28 03:53:40;;;;;;;18.40;7.50;;;;;;;24.66;56.87;100495.39;126297;1099;104214;-78
2021/07/28 03:56:10;;;;;;;40.43;8.23;;;;;;;24.71;57.04;100493.50;126308;1099;105310;-78
2021/07/28 03:58:41;;;;;;;23.37;7.23;;;;;;;24.74;56.99;100490.75;126315;1099;104149;-79
2021/07/28 04:01:12;;;;;;;13.67;6.43;;;;;;;24.76;56.91;100488.91;126345;1099;104579;-79
2021/07/28 04:03:43;;;;;;;16.37;6.83;;;;;;;24.80;56.93;100489.70;126279;1099;104211;-77
2021/07/28 04:06:13;;;;;;;17.97;7.30;;;;;;;24.83;56.92;100475.34;125329;1099;104144;-78
2021/07/28 04:08:44;;;;;;;13.90;6.90;;;;;;;24.84;56.74;100480.67;126290;1099;104281;-78
2021/07/28 04:11:15;;;;;;;20.63;7.77;;;;;;;24.85;56.71;100484.23;126295;1098;104153;-79
2021/07/28 04:13:46;;;;;;;24.83;7.87;;;;;;;24.91;56.64;100481.41;126288;1099;104194;-77
2021/07/28 04:16:16;;;;;;;16.50;7.00;;;;;;;24.94;56.76;100481.33;126330;1099;104195;-78
2021/07/28 04:18:47;;;;;;;16.07;7.33;;;;;;;24.98;56.71;100476.76;126294;1099;104277;-77
2021/07/28 04:21:18;;;;;;;19.50;8.10;;;;;;;24.99;56.45;100471.36;126322;1099;102364;-77
2021/07/28 04:23:49;;;;;;;20.43;7.07;;;;;;;25.02;56.41;100473.97;126287;1099;104140;-78
2021/07/28 04:26:20;;;;;;;19.70;8.30;;;;;;;25.05;56.47;100481.07;125393;1099;104140;-77
2021/07/28 04:28:51;;;;;;;17.33;7.60;;;;;;;25.07;56.10;100480.13;126299;1099;104165;-78
2021/07/28 04:31:22;;;;;;;18.57;7.87;;;;;;;25.10;56.48;100482.73;126305;1099;104140;-78
2021/07/28 04:33:53;;;;;;;18.73;7.73;;;;;;;25.12;56.06;100483.56;126236;1098;104198;-78
2021/07/28 04:36:23;;;;;;;16.23;7.70;;;;;;;25.16;56.24;100478.13;125358;1099;104150;-77
2021/07/28 04:38:54;;;;;;;14.23;7.77;;;;;;;25.18;56.52;100481.64;126316;1099;105096;-76
2021/07/28 04:41:27;;;;;;;16.57;7.75;;;;;;;25.20;55.98;100479.82;125331;1099;105361;-78
2021/07/28 04:43:58;;;;;;;16.03;7.40;;;;;;;25.23;56.09;100479.75;126314;1099;104211;-78
2021/07/28 04:46:28;;;;;;;21.80;8.07;;;;;;;25.24;55.91;100482.39;126317;1099;104134;-77
2021/07/28 04:48:59;;;;;;;18.50;7.37;;;;;;;25.25;56.15;100477.89;126295;1099;104322;-76
2021/07/28 04:51:30;;;;;;;20.97;8.50;;;;;;;25.27;56.17;100482.31;125386;1099;104219;-78
2021/07/28 04:54:02;;;;;;;20.80;7.93;;;;;;;25.29;56.07;100490.33;126275;1098;104147;-77
2021/07/28 04:56:32;;;;;;;15.87;6.97;;;;;;;25.30;56.11;100481.37;126275;1099;104185;-78
2021/07/28 04:59:03;;;;;;;12.23;7.00;;;;;;;25.33;56.15;100473.23;126294;1099;104203;-78
2021/07/28 05:01:36;;;;;;;19.43;7.40;;;;;;;25.39;56.21;100488.31;125333;1099;104355;-77
2021/07/28 05:04:06;;;;;;;;;;;;;;;25.35;55.84;100479.44;126307;1098;104268;-76
2021/07/28 05:06:40;;;;;;;18.37;7.87;;;;;;;25.37;56.41;100476.71;126206;1099;104166;-79
2021/07/28 05:09:12;;;;;;;16.93;7.87;;;;;;;25.39;55.92;100475.76;126249;1099;104216;-77
2021/07/28 05:11:43;;;;;;;22.30;8.00;;;;;;;25.44;56.58;100472.95;126247;1099;104191;-75
2021/07/28 05:14:15;;;;;;;19.47;8.33;;;;;;;25.48;55.95;100472.84;126229;1099;104416;-77
2021/07/28 05:16:47;;;;;;;17.15;7.83;;;;;;;25.52;55.91;100475.44;126283;1098;104146;-78
2021/07/28 05:19:19;;;;;;;15.63;7.13;;;;;;;25.57;55.76;100484.25;125381;1099;104200;-78
2021/07/28 05:21:54;;;;;;;16.30;7.67;;;;;;;25.61;55.91;100477.88;125392;1099;104153;-78
2021/07/28 05:24:25;;;;;;;13.17;7.37;;;;;;;25.65;56.37;100474.20;126234;1098;104240;-77
2021/07/28 05:26:56;;;;;;;19.87;7.80;;;;;;;25.69;56.14;100478.55;126208;1099;108029;-78
2021/07/28 05:29:27;;;;;;;18.30;8.03;;;;;;;25.71;55.68;100476.72;125381;1099;104162;-76
2021/07/28 05:32:00;;;;;;;17.53;7.60;;;;;;;25.75;55.77;100481.06;126194;1099;104184;-76
2021/07/28 05:34:34;;;;;;;15.60;7.70;;;;;;;25.78;56.02;100477.42;126268;1099;104242;-76
2021/07/28 05:37:05;;;;;;;21.23;7.75;;;;;;;25.79;55.53;100482.76;126209;1099;104123;-77
2021/07/28 05:39:35;;;;;;;16.00;7.40;;;;;;;25.83;55.60;100480.86;126242;1099;104303;-77
2021/07/28 05:42:08;;;;;;;15.40;7.53;;;;;;;25.88;55.58;100481.59;126294;1099;104213;-77
2021/07/28 05:44:42;;;;;;;19.77;8.07;;;;;;;25.92;56.00;100480.60;125286;1099;104207;-77
2021/07/28 05:47:13;;;;;;;17.73;7.73;;;;;;;26.00;55.71;100483.97;125292;1099;104166;-78
2021/07/28 05:49:46;;;;;;;18.73;7.80;;;;;;;26.07;55.79;100490.08;126113;1099;104294;-77
2021/07/28 05:52:17;;;;;;;22.13;8.33;;;;;;;26.13;55.78;100489.91;125949;1099;104329;-79
2021/07/28 05:54:50;;;;;;;21.17;8.07;;;;;;;26.21;55.85;100496.84;125211;1099;104235;-78
2021/07/28 05:57:22;;;;;;;22.80;8.10;;;;;;;26.25;55.78;100503.91;125761;1099;104226;-79
2021/07/28 05:59:55;;;;;;;14.90;7.70;;;;;;;26.26;55.28;100493.11;126021;1099;104248;-78
2021/07/28 06:02:29;;;;;;;20.83;8.23;;;;;;;26.30;55.16;100499.27;125197;1099;104224;-79
2021/07/28 06:05:03;;;;;;;24.00;8.17;;;;;;;26.35;55.77;100500.00;125985;1099;104223;-79
2021/07/28 06:07:37;;;;;;;17.83;8.37;;;;;;;26.40;55.25;100495.39;125943;1099;104184;-80
2021/07/28 06:10:11;;;;;;;18.07;8.00;;;;;;;26.47;55.33;100488.00;126148;1099;104249;-79
2021/07/28 06:12:45;;;;;;;20.73;8.07;;;;;;;26.56;55.35;100490.42;126149;1099;104153;-77
2021/07/28 06:15:19;;;;;;;15.83;8.07;;;;;;;26.62;55.71;100489.36;126186;1099;104274;-78
2021/07/28 06:17:53;;;;;;;22.20;8.17;;;;;;;26.63;55.55;100486.62;125235;1099;109747;-77
2021/07/28 06:20:26;;;;;;;20.45;7.95;;;;;;;26.71;55.63;100494.48;125355;1099;104146;-78
2021/07/28 06:22:57;;;;;;;16.60;8.30;;;;;;;26.79;55.29;100495.13;126057;1099;104146;-78
2021/07/28 06:25:33;;;;;;;16.60;7.90;;;;;;;26.84;55.65;100493.16;126275;1099;104156;-78
2021/07/28 06:28:10;;;;;;;18.30;8.80;;;;;;;26.94;55.52;100491.04;125235;1099;119028;-78
2021/07/28 06:30:43;;;;;;;20.83;9.67;;;;;;;27.01;54.96;100497.13;126128;1099;104517;-77
2021/07/28 06:33:15;;;;;;;18.47;9.53;;;;;;;27.05;55.70;100486.20;126144;1098;104274;-76
2021/07/28 06:36:03;;;;;;;18.32;9.50;;;;;;;27.09;55.62;100490.54;126227;1099;104140;-79
2021/07/28 06:38:36;;;;;;;19.73;9.20;;;;;;;27.16;55.55;100498.41;125279;1099;104184;-78
2021/07/28 06:41:08;;;;;;;27.50;9.93;;;;;;;27.24;55.63;100481.08;125210;1099;104178;-77
2021/07/28 06:43:43;;;;;;;19.50;8.73;;;;;;;27.34;55.65;100486.19;125427;1099;104808;-76
2021/07/28 06:46:25;;;;;;;20.13;9.07;;;;;;;27.43;55.12;100484.05;126161;1099;104274;-77
2021/07/28 06:49:00;;;;;;;19.20;8.85;;;;;;;27.54;54.96;100485.50;126182;1098;111634;-77
2021/07/28 06:51:35;;;;;;;23.77;9.10;;;;;;;27.59;54.88;100484.39;126205;1099;104213;-77
2021/07/28 06:54:07;;;;;;;26.00;10.33;;;;;;;27.68;54.71;100485.02;126182;1099;104185;-78
2021/07/28 06:56:41;;;;;;;23.02;9.88;;;;;;;27.74;55.22;100476.72;125345;1099;104316;-78
2021/07/28 06:59:14;;;;;;;24.83;9.77;;;;;;;27.83;54.55;100478.17;125391;1099;104219;-78
2021/07/28 07:01:54;;;;;;;28.37;10.93;;;;;;;27.93;54.72;100480.48;126166;1099;104232;-79
2021/07/28 07:04:27;;;;;;;16.20;8.43;;;;;;;28.05;54.85;100480.98;125393;1099;104169;-78
2021/07/28 07:07:00;;;;;;;20.93;9.07;;;;;;;28.15;54.58;100485.98;126032;1099;104650;-78
2021/07/28 07:09:35;;;;;;;19.73;8.73;;;;;;;28.28;54.54;100485.52;126147;1097;108192;-79
2021/07/28 07:12:13;;;;;;;16.53;7.80;;;;;;;28.38;54.49;100483.38;126210;1098;104245;-78
2021/07/28 07:14:48;;;;;;;21.00;9.07;;;;;;;28.53;54.46;100482.75;126228;1099;104226;-78
2021/07/28 07:17:21;;;;;;;26.57;8.83;;;;;;;28.72;54.31;100490.15;125296;1102;104493;-78
2021/07/28 07:19:56;;;;;;;20.17;9.67;;;;;;;28.87;53.79;100481.44;125241;1102;104354;-78
2021/07/28 07:22:31;;;;;;;20.57;8.87;;;;;;;28.99;53.79;100490.87;125331;1102;104338;-78
2021/07/28 07:25:05;;;;;;;20.57;8.77;;;;;;;29.12;53.63;100489.40;125324;1102;104632;-79
2021/07/28 07:27:40;;;;;;;24.83;8.90;;;;;;;29.26;53.38;100491.56;125129;1102;104255;-79
2021/07/28 07:30:12;;;;;;;18.60;8.63;;;;;;;29.42;53.19;100483.70;125157;1102;104163;-79
2021/07/28 07:32:44;;;;;;;23.37;9.70;;;;;;;29.62;52.82;100490.91;125238;1099;104677;-79
2021/07/28 07:35:16;;;;;;;26.70;8.57;;;;;;;29.85;52.18;100486.36;125261;1100;104296;-79
2021/07/28 07:37:49;;;;;;;21.27;8.97;;;;;;;30.03;51.93;100493.64;125278;1099;104410;-78
2021/07/28 07:40:25;;;;;;;28.03;9.07;;;;;;;30.20;51.94;100487.46;125131;1102;104262;-79
2021/07/28 07:43:01;;;;;;;23.30;9.57;;;;;;;30.39;50.97;100490.21;125246;1102;104267;-79
2021/07/28 07:45:36;;;;;;;23.70;9.13;;;;;;;30.65;50.74;100491.69;125216;1102;104181;-78
2021/07/28 07:48:09;;;;;;;25.10;9.13;;;;;;;30.80;50.15;100489.17;125193;1102;104460;-78
2021/07/28 07:50:41;;;;;;;27.10;9.03;;;;;;;30.93;50.15;100481.31;126242;1099;104169;-78
2021/07/28 07:53:15;;;;;;;24.20;8.37;;;;;;;31.07;49.41;100489.69;126155;1099;104318;-78
2021/07/28 07:55:58;;;;;;;23.57;8.68;;;;;;;31.29;49.00;100480.44;126270;1099;104158;-77
2021/07/28 07:58:30;;;;;;;24.23;9.57;;;;;;;31.48;48.07;100483.97;126247;1099;104144;-78
2021/07/28 08:01:05;;;;;;;21.27;9.67;;;;;;;31.63;47.63;100481.44;126233;1099;104166;-79
2021/07/28 08:03:55;;;;;;;25.63;9.33;;;;;;;31.79;47.01;100476.97;126214;1099;104162;-78
2021/07/28 08:06:30;;;;;;;22.80;9.17;;;;;;;31.90;47.19;100477.27;125327;1100;105645;-80
2021/07/28 08:09:01;;;;;;;26.77;9.30;;;;;;;32.03;46.24;100476.60;126143;1099;104194;-79
2021/07/28 08:11:32;;;;;;;;;;;;;;;32.19;44.29;100482.95;126173;1099;104159;-79
2021/07/28 08:14:04;;;;;;;22.77;8.60;;;;;;;32.30;46.27;100484.22;125248;1099;104351;-78
2021/07/28 08:16:37;;;;;;;28.50;9.33;;;;;;;32.43;45.69;100480.73;126165;1099;104201;-77
2021/07/28 08:19:09;;;;;;;25.80;9.07;;;;;;;32.54;45.56;100477.41;125953;1099;104242;-79
2021/07/28 08:21:44;;;;;;;29.03;9.13;;;;;;;32.57;45.26;100482.67;126238;1099;104139;-78
2021/07/28 08:24:16;;;;;;;27.32;9.50;;;;;;;32.65;45.33;100474.13;125285;1099;104585;-78
2021/07/28 08:26:49;;;;;;;23.37;8.97;;;;;;;32.75;44.98;100479.90;126063;1099;104149;-77
2021/07/28 08:29:23;;;;;;;26.30;9.03;;;;;;;32.86;44.39;100468.41;125998;1099;104190;-79
2021/07/28 08:31:55;;;;;;;21.85;8.38;;;;;;;32.98;43.79;100477.70;126043;1099;104194;-78
2021/07/28 08:34:33;;;;;;;24.70;9.30;;;;;;;33.17;43.82;100474.77;125094;1099;104207;-80
2021/07/28 08:37:04;;;;;;;23.37;8.43;;;;;;;33.32;43.49;100482.05;125982;1099;104191;-77
2021/07/28 08:39:37;;;;;;;24.77;9.30;;;;;;;33.43;42.90;100473.25;126016;1099;104175;-77
2021/07/28 08:42:12;;;;;;;24.63;8.97;;;;;;;33.55;42.54;100479.77;126159;1099;104217;-78
2021/07/28 08:44:47;;;;;;;25.23;8.70;;;;;;;33.60;42.22;100474.94;125136;1102;104182;-79
2021/07/28 08:47:31;;;;;;;25.93;9.00;;;;;;;33.61;41.92;100474.84;125224;1102;104387;-79
2021/07/28 08:50:05;;;;;;;28.10;8.90;;;;;;;33.67;41.41;100469.03;125187;1102;104198;-79
2021/07/28 08:52:46;;;;;;;25.33;8.27;;;;;;;33.79;41.12;100461.97;125136;1102;103751;-78
2021/07/28 08:55:22;;;;;;;20.67;8.07;;;;;;;33.89;40.54;100466.84;125193;1102;104178;-78
2021/07/28 08:57:54;;;;;;;23.57;7.77;;;;;;;33.97;40.40;100464.50;125185;1102;104328;-77
2021/07/28 09:00:28;;;;;;;19.80;7.57;;;;;;;33.97;38.98;100465.40;125089;1102;104293;-78
2021/07/28 09:03:04;;;;;;;20.80;7.33;;;;;;;34.03;38.91;100462.29;125220;1102;104319;-78
2021/07/28 09:05:43;;;;;;;23.00;8.20;;;;;;;34.08;38.76;100461.09;125062;1102;104379;-79
2021/07/28 09:08:26;;;;;;;21.93;7.63;;;;;;;34.11;38.41;100466.35;125093;1100;104233;-77
2021/07/28 09:10:59;;;;;;;26.83;7.97;;;;;;;34.20;38.35;100465.77;125039;1102;104331;-78
2021/07/28 09:13:34;;;;;;;20.02;7.67;;;;;;;34.27;38.19;100467.17;125090;1102;104256;-81
2021/07/28 09:16:11;;;;;;;22.10;7.80;;;;;;;34.26;37.68;100465.41;125241;1099;104188;-79
2021/07/28 09:18:47;;;;;;;17.50;7.27;;;;;;;34.23;37.08;100460.13;125081;1103;104348;-80
2021/07/28 09:21:32;;;;;;;21.43;7.57;;;;;;;34.20;36.70;100460.32;125332;1099;104149;-78
2021/07/28 09:24:11;;;;;;;20.33;7.43;;;;;;;34.17;37.16;100460.52;125951;1099;104358;-79
2021/07/28 09:26:47;;;;;;;25.43;7.70;;;;;;;34.15;36.66;100457.89;126053;1099;104127;-80
2021/07/28 09:29:25;;;;;;;23.27;7.80;;;;;;;34.17;36.89;100455.07;126159;1099;104172;-77
2021/07/28 09:32:01;;;;;;;19.13;7.37;;;;;;;34.20;36.80;100447.60;126260;1099;104153;-79
2021/07/28 09:34:37;;;;;;;22.47;7.87;;;;;;;34.33;36.97;100450.44;125983;1099;104137;-79
2021/07/28 09:37:14;;;;;;;23.13;7.60;;;;;;;34.42;36.76;100453.52;126001;1099;104579;-79
2021/07/28 09:39:48;;;;;;;24.20;7.57;;;;;;;34.41;36.62;100440.87;126008;1099;104404;-78
2021/07/28 09:42:27;;;;;;;21.23;7.17;;;;;;;34.39;36.39;100444.59;125109;1099;104277;-78
2021/07/28 09:45:00;;;;;;;18.00;7.20;;;;;;;34.45;36.95;100437.84;125218;1099;104325;-78
2021/07/28 09:47:42;;;;;;;22.57;7.73;;;;;;;34.46;36.94;100438.74;126026;1099;104709;-77
2021/07/28 09:50:16;;;;;;;23.97;7.50;;;;;;;34.45;36.86;100439.70;125317;1099;104142;-77
2021/07/28 09:52:50;;;;;;;23.03;7.70;;;;;;;34.45;37.17;100442.43;125860;1099;104200;-77
2021/07/28 09:55:28;;;;;;;19.77;7.40;;;;;;;34.45;36.83;100437.84;126047;1099;104300;-78
2021/07/28 09:58:01;;;;;;;29.03;8.03;;;;;;;34.47;36.77;100440.47;125892;1098;104386;-77
2021/07/28 10:00:33;;;;;;;21.13;7.27;;;;;;;34.48;36.85;100439.51;126043;1099;104146;-78
2021/07/28 10:03:08;;;;;;;24.97;8.10;;;;;;;34.38;36.66;100439.24;126050;1099;111975;-76
2021/07/28 10:05:41;;;;;;;24.03;8.07;;;;;;;34.40;36.62;100429.11;126038;1099;104739;-76
2021/07/28 10:08:17;;;;;;;22.20;7.37;;;;;;;34.50;37.38;100429.38;125956;1099;104341;-76
2021/07/28 10:10:51;;;;;;;25.90;7.73;;;;;;;34.53;37.01;100430.06;125973;1099;104329;-76
2021/07/28 10:13:25;;;;;;;20.07;7.00;;;;;;;34.55;36.92;100421.80;126086;1099;104175;-76
2021/07/28 10:15:58;;;;;;;16.83;6.70;;;;;;;34.59;36.76;100426.04;126163;1099;104172;-76
2021/07/28 10:18:28;;;;;;;;;;;;;;;34.58;35.92;100421.59;126085;1099;104341;-80
2021/07/28 10:21:01;;;;;;;18.73;7.40;;;;;;;34.59;36.31;100417.87;126024;1098;104200;-77
2021/07/28 10:23:37;;;;;;;20.53;7.43;;;;;;;34.62;36.46;100414.08;126187;1099;104316;-78
2021/07/28 10:26:09;;;;;;;18.47;7.40;;;;;;;34.67;36.67;100407.36;125940;1099;104249;-77
2021/07/28 10:28:46;;;;;;;19.93;7.17;;;;;;;34.80;36.28;100411.98;126027;1099;104165;-76
2021/07/28 10:31:39;;;;;;;19.97;7.03;;;;;;;34.81;36.03;100413.75;125985;1099;104163;-77
2021/07/28 10:34:32;;;;;;;19.03;6.37;;;;;;;34.76;36.04;100405.02;125668;1099;121276;-77
2021/07/28 10:37:08;;;;;;;21.10;6.20;;;;;;;34.72;34.24;100412.50;126015;1099;104360;-77
2021/07/28 10:40:03;;;;;;;20.67;6.37;;;;;;;34.76;34.28;100410.47;125927;1099;104261;-79
2021/07/28 10:43:01;;;;;;;19.87;7.10;;;;;;;34.81;34.22;100413.75;126022;1098;104689;-78
2021/07/28 10:48:52;;;;;;;21.35;6.97;;;;;;;34.84;33.23;100406.23;125169;1102;105486;-78
2021/07/28 10:51:55;;;;;;;18.90;6.67;;;;;;;34.95;33.17;100400.05;125065;1102;104306;-78
2021/07/28 10:54:52;;;;;;;22.57;6.60;;;;;;;34.95;33.19;100397.32;124932;1102;104146;-78
2021/07/28 10:57:46;;;;;;;21.70;7.07;;;;;;;34.88;33.45;100404.19;125081;1102;104180;-76
2021/07/28 11:00:47;;;;;;;26.63;7.63;;;;;;;34.71;33.84;100405.29;124820;1102;107694;-77
2021/07/28 11:03:19;;;;;;;20.07;6.20;;;;;;;34.61;34.07;100396.87;124876;1106;104153;-76
2021/07/28 11:05:53;;;;;;;21.40;7.70;;;;;;;34.53;34.39;100401.93;124847;1102;104229;-79
2021/07/28 11:08:31;;;;;;;22.13;7.10;;;;;;;34.55;34.06;100402.73;124824;1101;104270;-79
2021/07/28 11:11:02;;;;;;;23.17;7.57;;;;;;;34.59;34.02;100396.08;125124;1102;104195;-78
2021/07/28 11:13:35;;;;;;;22.60;6.90;;;;;;;34.68;34.23;100398.19;125086;1102;104278;-77
2021/07/28 11:16:09;;;;;;;18.13;5.97;;;;;;;34.72;33.88;100390.70;125154;1102;104146;-77
2021/07/28 11:18:43;;;;;;;24.07;7.00;;;;;;;34.74;33.98;100391.46;124952;1105;104255;-79
2021/07/28 11:21:18;;;;;;;19.97;6.33;;;;;;;34.76;33.81;100383.22;124921;1102;104191;-78
2021/07/28 11:23:59;;;;;;;19.37;7.13;;;;;;;34.78;33.90;100390.29;125088;1102;104152;-79
2021/07/28 11:26:33;;;;;;;25.53;7.30;;;;;;;34.82;34.09;100377.34;125043;1102;104220;-78
2021/07/28 11:29:07;;;;;;;21.40;7.30;;;;;;;34.85;34.34;100377.14;125026;1102;104200;-78
2021/07/28 11:31:41;;;;;;;23.20;7.50;;;;;;;34.87;34.57;100381.48;124936;1102;104209;-78
2021/07/28 11:34:15;;;;;;;23.40;6.60;;;;;;;34.87;34.63;100373.31;124951;1105;104162;-75
2021/07/28 11:36:59;;;;;;;20.97;6.87;;;;;;;34.87;34.63;100370.59;124964;1105;104261;-77